Andyville, Minnesota
Current Conditions -  °F | °C
As of 9:35 PM on Sunday 21 Dec 2014 (Local Time) from KAUM Reporting Station
Drizzle Drizzle  
Wind Chill: 31°   Ceiling: 300
Heat Index: 37°   Visibility: 2mi
Dew Point: 36°   Wind: 9mph
Humidity: 93%   Direction: 160°SSE
Pressure: 29.75"   Gusts: 16mph
Location:  43.7173°N, 92.9889°W
Report Text: KAUM 220335Z AUTO 16008G14KT 2SM -DZ OVC003 03/02 A2975 RMK AO2
Loading
Personal Weather Stations






























Interactive Weather Map New forecast layout! Learn more

10-Day Weather Forecast

Advertisements
Track Severe Weather on mobile